Terminal Aerodrome Forecast
Issued by NWS

Home | Current Version | Previous Version | Text Only | Print | Product List | Glossary On
Versions: 1 2 3 4 5 6 7 8 9 10 11 12 13 14 15
421
FTUS43 KIND 300522
TAFHUF
TAF
KHUF 300522Z 3006/0106 35006KT 6SM SHRA OVC025
     FM300700 36006KT 6SM SHRA OVC015
     FM301000 36007KT 6SM SHRA OVC008
     FM301100 36007KT 6SM SHRA OVC010
     FM301300 01007KT 5SM -RA OVC020
     FM301500 04007KT 3SM -RA OVC015
     FM301700 06006KT 6SM -SHRA OVC040 PROB30 3017/3023 4SM TS
      OVC025CB
     FM010000 09005KT P6SM BKN060=

USA.gov is the U.S. government's official web portal to all federal, state and local government web resources and services.